Terminal Aerodrome Forecast
Issued by NWS Portland, OR

Home | Current Version | Previous Version | Text Only | Print | Product List | Glossary On
Versions: 1 2 3 4 5 6 7 8 9 10 11 12 13 14 15 16 17 18 19 20 21 22 23 24 25 26 27 28 29 30 31
000
FTUS46 KPQR 081723
TAFPDX
TAF
KPDX 081723Z 0818/0918 09025G40KT P6SM SCT080 BKN120 BKN200
      TEMPO 0818/0819 -SN
     FM081900 10025G35KT 4SM -SN BR BKN020 OVC045
     FM082200 10025G32KT 1SM -SNPL BR OVC020
     FM090000 10025G33KT 3SM -FZRAPL BR SCT008
     FM090400 12019G25KT 5SM BR VCSH OVC025
     FM091200 12013KT P6SM OVC050=

USA.gov is the U.S. government's official web portal to all federal, state and local government web resources and services.